sensor_id;sensor_type;location;lat;lon;timestamp;pressure;altitude;pressure_sealevel;temperature;humidity
70902;BME280;58548;47.210;8.618;2023-08-07T00:00:50;94335.41;;;21.52;34.36
70902;BME280;58548;47.210;8.618;2023-08-07T00:03:21;94288.38;;;21.26;34.61
70902;BME280;58548;47.210;8.618;2023-08-07T00:05:52;94288.50;;;21.36;34.43
70902;BME280;58548;47.210;8.618;2023-08-07T00:08:18;94312.03;;;21.54;34.18
70902;BME280;58548;47.210;8.618;2023-08-07T00:10:45;94317.22;;;21.72;34.52
70902;BME280;58548;47.210;8.618;2023-08-07T00:13:13;94316.72;;;21.75;34.81
70902;BME280;58548;47.210;8.618;2023-08-07T00:15:40;94298.09;;;21.69;34.35
70902;BME280;58548;47.210;8.618;2023-08-07T00:18:06;94281.75;;;21.56;34.66
70902;BME280;58548;47.210;8.618;2023-08-07T00:20:32;94298.38;;;21.73;34.95
70902;BME280;58548;47.210;8.618;2023-08-07T00:22:58;94314.94;;;21.80;35.20
70902;BME280;58548;47.210;8.618;2023-08-07T00:25:24;94322.41;;;21.89;35.46
70902;BME280;58548;47.210;8.618;2023-08-07T00:27:51;94325.91;;;21.94;35.54
70902;BME280;58548;47.210;8.618;2023-08-07T00:30:17;94280.56;;;21.68;35.14
70902;BME280;58548;47.210;8.618;2023-08-07T00:32:43;94309.63;;;21.80;34.90
70902;BME280;58548;47.210;8.618;2023-08-07T00:35:11;94294.84;;;21.62;35.29
70902;BME280;58548;47.210;8.618;2023-08-07T00:37:37;94325.19;;;21.66;34.84
70902;BME280;58548;47.210;8.618;2023-08-07T00:40:06;94301.81;;;21.41;35.02
70902;BME280;58548;47.210;8.618;2023-08-07T00:42:39;94293.69;;;21.26;35.48
70902;BME280;58548;47.210;8.618;2023-08-07T00:45:08;94321.16;;;21.36;35.23
70902;BME280;58548;47.210;8.618;2023-08-07T00:47:37;94304.31;;;21.26;35.59
70902;BME280;58548;47.210;8.618;2023-08-07T00:50:09;94332.84;;;21.35;35.34
70902;BME280;58548;47.210;8.618;2023-08-07T00:52:36;94327.47;;;21.30;35.17
70902;BME280;58548;47.210;8.618;2023-08-07T00:55:02;94315.00;;;21.31;34.49
70902;BME280;58548;47.210;8.618;2023-08-07T00:57:30;94286.03;;;21.02;34.94
70902;BME280;58548;47.210;8.618;2023-08-07T00:59:57;94318.06;;;21.17;35.03
70902;BME280;58548;47.210;8.618;2023-08-07T01:02:29;94272.09;;;20.89;35.38
70902;BME280;58548;47.210;8.618;2023-08-07T01:04:57;94294.59;;;21.09;35.25
70902;BME280;58548;47.210;8.618;2023-08-07T01:07:25;94299.84;;;21.04;35.49
70902;BME280;58548;47.210;8.618;2023-08-07T01:09:54;94257.59;;;20.75;35.30
70902;BME280;58548;47.210;8.618;2023-08-07T01:12:42;94275.19;;;20.81;35.59
70902;BME280;58548;47.210;8.618;2023-08-07T01:15:19;94305.63;;;20.96;35.72
70902;BME280;58548;47.210;8.618;2023-08-07T01:17:49;94265.44;;;20.64;36.15
70902;BME280;58548;47.210;8.618;2023-08-07T01:20:18;94290.25;;;20.75;36.28
70902;BME280;58548;47.210;8.618;2023-08-07T01:22:44;94311.94;;;20.89;36.90
70902;BME280;58548;47.210;8.618;2023-08-07T01:25:11;94279.88;;;20.74;36.89
70902;BME280;58548;47.210;8.618;2023-08-07T01:28:04;94272.41;;;20.71;37.08
70902;BME280;58548;47.210;8.618;2023-08-07T01:30:42;94290.25;;;20.75;37.55
70902;BME280;58548;47.210;8.618;2023-08-07T01:35:49;94308.44;;;20.89;37.05
70902;BME280;58548;47.210;8.618;2023-08-07T01:38:23;94315.00;;;20.81;37.58
70902;BME280;58548;47.210;8.618;2023-08-07T01:40:53;94294.91;;;20.68;37.05
70902;BME280;58548;47.210;8.618;2023-08-07T01:43:24;94319.88;;;20.89;37.39
70902;BME280;58548;47.210;8.618;2023-08-07T01:45:50;94283.13;;;20.76;37.15
70902;BME280;58548;47.210;8.618;2023-08-07T01:48:19;94301.25;;;20.84;36.96
70902;BME280;58548;47.210;8.618;2023-08-07T01:50:53;94320.06;;;21.05;36.23
70902;BME280;58548;47.210;8.618;2023-08-07T01:53:22;94322.66;;;21.00;36.79
70902;BME280;58548;47.210;8.618;2023-08-07T01:55:48;94302.28;;;20.83;36.82
70902;BME280;58548;47.210;8.618;2023-08-07T01:58:16;94324.81;;;21.03;36.52
70902;BME280;58548;47.210;8.618;2023-08-07T02:00:43;94300.69;;;20.82;36.18
70902;BME280;58548;47.210;8.618;2023-08-07T02:03:11;94304.53;;;20.91;36.28
70902;BME280;58548;47.210;8.618;2023-08-07T02:05:39;94318.44;;;21.04;36.37
70902;BME280;58548;47.210;8.618;2023-08-07T02:08:08;94328.56;;;21.07;36.13
70902;BME280;58548;47.210;8.618;2023-08-07T02:10:34;94325.16;;;21.12;35.80
70902;BME280;58548;47.210;8.618;2023-08-07T02:13:00;94312.16;;;21.10;36.08
70902;BME280;58548;47.210;8.618;2023-08-07T02:15:29;94340.41;;;21.21;35.84
70902;BME280;58548;47.210;8.618;2023-08-07T02:17:57;94297.09;;;20.93;35.89
70902;BME280;58548;47.210;8.618;2023-08-07T02:20:26;94312.03;;;21.00;36.29
70902;BME280;58548;47.210;8.618;2023-08-07T02:22:54;94295.53;;;20.98;36.33
70902;BME280;58548;47.210;8.618;2023-08-07T02:25:20;94331.63;;;21.21;36.46
70902;BME280;58548;47.210;8.618;2023-08-07T02:27:48;94329.97;;;21.15;36.61
70902;BME280;58548;47.210;8.618;2023-08-07T02:30:14;94319.06;;;21.11;36.42
70902;BME280;58548;47.210;8.618;2023-08-07T02:32:41;94332.97;;;21.23;36.06
70902;BME280;58548;47.210;8.618;2023-08-07T02:35:10;94353.25;;;21.30;35.80
70902;BME280;58548;47.210;8.618;2023-08-07T02:37:36;94309.44;;;21.05;36.68
70902;BME280;58548;47.210;8.618;2023-08-07T02:40:05;94337.59;;;21.33;36.36
70902;BME280;58548;47.210;8.618;2023-08-07T02:42:31;94336.47;;;21.29;36.12
70902;BME280;58548;47.210;8.618;2023-08-07T02:45:02;94356.44;;;21.32;35.96
70902;BME280;58548;47.210;8.618;2023-08-07T02:47:34;94354.34;;;21.34;36.35
70902;BME280;58548;47.210;8.618;2023-08-07T02:50:01;94328.13;;;21.15;36.16
70902;BME280;58548;47.210;8.618;2023-08-07T02:52:30;94298.19;;;20.98;36.13
70902;BME280;58548;47.210;8.618;2023-08-07T02:54:59;94323.56;;;21.11;36.44
70902;BME280;58548;47.210;8.618;2023-08-07T02:57:27;94307.25;;;20.97;36.49
70902;BME280;58548;47.210;8.618;2023-08-07T02:59:55;94330.19;;;21.08;36.51
70902;BME280;58548;47.210;8.618;2023-08-07T03:02:22;94341.19;;;20.94;36.40
70902;BME280;58548;47.210;8.618;2023-08-07T03:04:48;94346.25;;;20.96;37.01
70902;BME280;58548;47.210;8.618;2023-08-07T03:07:16;94347.06;;;20.97;36.36
70902;BME280;58548;47.210;8.618;2023-08-07T03:09:46;94344.94;;;20.99;36.78
70902;BME280;58548;47.210;8.618;2023-08-07T03:12:14;94331.25;;;20.85;36.62
70902;BME280;58548;47.210;8.618;2023-08-07T03:14:43;94348.59;;;20.92;36.44
70902;BME280;58548;47.210;8.618;2023-08-07T03:17:16;94334.88;;;20.78;36.34
70902;BME280;58548;47.210;8.618;2023-08-07T03:19:46;94338.25;;;20.74;37.12
70902;BME280;58548;47.210;8.618;2023-08-07T03:22:12;94321.41;;;20.63;36.94
70902;BME280;58548;47.210;8.618;2023-08-07T03:24:40;94353.78;;;20.82;36.85
70902;BME280;58548;47.210;8.618;2023-08-07T03:27:09;94363.91;;;20.85;37.35
70902;BME280;58548;47.210;8.618;2023-08-07T03:29:39;94343.56;;;20.74;37.45
70902;BME280;58548;47.210;8.618;2023-08-07T03:32:06;94368.78;;;20.93;37.24
70902;BME280;58548;47.210;8.618;2023-08-07T03:34:34;94324.06;;;20.63;37.74
70902;BME280;58548;47.210;8.618;2023-08-07T03:37:00;94347.34;;;20.78;37.94
70902;BME280;58548;47.210;8.618;2023-08-07T03:39:26;94378.84;;;20.91;38.41
70902;BME280;58548;47.210;8.618;2023-08-07T03:41:55;94367.22;;;20.98;37.92
70902;BME280;58548;47.210;8.618;2023-08-07T03:44:21;94338.97;;;20.86;37.67
70902;BME280;58548;47.210;8.618;2023-08-07T03:46:47;94350.78;;;21.01;37.26
70902;BME280;58548;47.210;8.618;2023-08-07T03:49:13;94354.81;;;21.03;36.93
70902;BME280;58548;47.210;8.618;2023-08-07T03:51:39;94369.38;;;21.01;37.34
70902;BME280;58548;47.210;8.618;2023-08-07T03:54:05;94331.41;;;20.78;37.45
70902;BME280;58548;47.210;8.618;2023-08-07T03:56:36;94345.81;;;20.82;37.64
70902;BME280;58548;47.210;8.618;2023-08-07T03:59:06;94330.22;;;20.69;37.50
70902;BME280;58548;47.210;8.618;2023-08-07T04:01:32;94352.16;;;20.81;37.64
70902;BME280;58548;47.210;8.618;2023-08-07T04:03:58;94362.00;;;20.81;37.22
70902;BME280;58548;47.210;8.618;2023-08-07T04:06:28;94344.56;;;20.68;37.17
70902;BME280;58548;47.210;8.618;2023-08-07T04:08:54;94363.25;;;20.78;37.52
70902;BME280;58548;47.210;8.618;2023-08-07T04:11:23;94375.34;;;20.69;37.52
70902;BME280;58548;47.210;8.618;2023-08-07T04:13:49;94351.31;;;20.58;37.60
70902;BME280;58548;47.210;8.618;2023-08-07T04:16:18;94344.84;;;20.49;37.28
70902;BME280;58548;47.210;8.618;2023-08-07T04:18:49;94355.47;;;20.49;37.45
70902;BME280;58548;47.210;8.618;2023-08-07T04:21:19;94370.25;;;20.45;37.70
70902;BME280;58548;47.210;8.618;2023-08-07T04:23:47;94360.00;;;20.31;37.71
70902;BME280;58548;47.210;8.618;2023-08-07T04:26:16;94319.84;;;20.06;37.56
70902;BME280;58548;47.210;8.618;2023-08-07T04:28:42;94332.06;;;20.07;37.73
70902;BME280;58548;47.210;8.618;2023-08-07T04:31:11;94371.66;;;20.30;37.82
70902;BME280;58548;47.210;8.618;2023-08-07T04:33:43;94359.06;;;20.03;38.12
70902;BME280;58548;47.210;8.618;2023-08-07T04:36:13;94345.41;;;19.95;38.10
70902;BME280;58548;47.210;8.618;2023-08-07T04:38:39;94358.97;;;19.98;38.08
70902;BME280;58548;47.210;8.618;2023-08-07T04:41:05;94393.25;;;20.22;37.88
70902;BME280;58548;47.210;8.618;2023-08-07T04:43:31;94398.09;;;20.25;37.52
70902;BME280;58548;47.210;8.618;2023-08-07T04:46:00;94401.22;;;20.22;37.31
70902;BME280;58548;47.210;8.618;2023-08-07T04:48:26;94353.09;;;19.96;38.09
70902;BME280;58548;47.210;8.618;2023-08-07T04:50:54;94383.47;;;20.23;37.96
70902;BME280;58548;47.210;8.618;2023-08-07T04:53:23;94391.81;;;20.31;37.80
70902;BME280;58548;47.210;8.618;2023-08-07T04:55:49;94379.13;;;20.33;37.31
70902;BME280;58548;47.210;8.618;2023-08-07T04:58:16;94383.78;;;20.43;37.63
70902;BME280;58548;47.210;8.618;2023-08-07T05:00:41;94349.63;;;20.30;37.27
70902;BME280;58548;47.210;8.618;2023-08-07T05:03:10;94398.78;;;20.55;36.96
70902;BME280;58548;47.210;8.618;2023-08-07T05:05:36;94360.16;;;20.25;37.24
70902;BME280;58548;47.210;8.618;2023-08-07T05:08:04;94363.69;;;20.30;37.06
70902;BME280;58548;47.210;8.618;2023-08-07T05:10:32;94373.66;;;20.40;37.16
70902;BME280;58548;47.210;8.618;2023-08-07T05:13:01;94363.53;;;20.37;36.95
70902;BME280;58548;47.210;8.618;2023-08-07T05:15:28;94354.69;;;20.31;36.72
70902;BME280;58548;47.210;8.618;2023-08-07T05:17:56;94387.78;;;20.46;37.05
70902;BME280;58548;47.210;8.618;2023-08-07T05:20:25;94394.22;;;20.50;36.50
70902;BME280;58548;47.210;8.618;2023-08-07T05:22:54;94363.78;;;20.18;37.18
70902;BME280;58548;47.210;8.618;2023-08-07T05:25:21;94366.84;;;20.27;36.94
70902;BME280;58548;47.210;8.618;2023-08-07T05:27:50;94399.75;;;20.48;37.21
70902;BME280;58548;47.210;8.618;2023-08-07T05:30:16;94371.88;;;20.29;36.76
70902;BME280;58548;47.210;8.618;2023-08-07T05:32:42;94384.25;;;20.40;37.20
70902;BME280;58548;47.210;8.618;2023-08-07T05:35:13;94365.31;;;20.31;36.81
70902;BME280;58548;47.210;8.618;2023-08-07T05:37:39;94379.84;;;20.29;36.61
70902;BME280;58548;47.210;8.618;2023-08-07T05:40:08;94382.19;;;20.25;36.53
70902;BME280;58548;47.210;8.618;2023-08-07T05:42:40;94402.09;;;20.45;36.81
70902;BME280;58548;47.210;8.618;2023-08-07T05:45:08;94380.69;;;20.34;36.95
70902;BME280;58548;47.210;8.618;2023-08-07T05:47:38;94392.78;;;20.42;37.26
70902;BME280;58548;47.210;8.618;2023-08-07T05:50:04;94407.59;;;20.60;36.98
70902;BME280;58548;47.210;8.618;2023-08-07T05:52:35;94394.81;;;20.57;36.91
70902;BME280;58548;47.210;8.618;2023-08-07T05:55:05;94404.94;;;20.77;37.19
70902;BME280;58548;47.210;8.618;2023-08-07T05:57:31;94381.13;;;20.66;36.48
70902;BME280;58548;47.210;8.618;2023-08-07T05:59:57;94376.94;;;20.70;36.61
70902;BME280;58548;47.210;8.618;2023-08-07T06:02:24;94373.88;;;20.78;36.56
70902;BME280;58548;47.210;8.618;2023-08-07T06:04:50;94382.47;;;20.85;36.73
70902;BME280;58548;47.210;8.618;2023-08-07T06:07:18;94385.44;;;20.89;36.63
70902;BME280;58548;47.210;8.618;2023-08-07T06:09:44;94400.53;;;21.05;36.16
70902;BME280;58548;47.210;8.618;2023-08-07T06:12:12;94409.34;;;21.11;36.03
70902;BME280;58548;47.210;8.618;2023-08-07T06:14:38;94378.34;;;20.94;35.83
70902;BME280;58548;47.210;8.618;2023-08-07T06:17:04;94410.47;;;21.15;35.81
70902;BME280;58548;47.210;8.618;2023-08-07T06:19:30;94424.97;;;21.30;35.33
70902;BME280;58548;47.210;8.618;2023-08-07T06:21:56;94422.31;;;21.30;35.26
70902;BME280;58548;47.210;8.618;2023-08-07T06:24:24;94383.78;;;21.05;35.25
70902;BME280;58548;47.210;8.618;2023-08-07T06:26:53;94425.34;;;21.16;34.45
70902;BME280;58548;47.210;8.618;2023-08-07T06:29:19;94383.66;;;20.94;35.50
70902;BME280;58548;47.210;8.618;2023-08-07T06:31:46;94416.84;;;21.19;34.87
70902;BME280;58548;47.210;8.618;2023-08-07T06:34:12;94389.38;;;21.08;35.33
70902;BME280;58548;47.210;8.618;2023-08-07T06:36:40;94395.00;;;21.12;34.73
70902;BME280;58548;47.210;8.618;2023-08-07T06:39:09;94395.88;;;21.18;34.16
70902;BME280;58548;47.210;8.618;2023-08-07T06:41:39;94396.69;;;21.18;34.77
70902;BME280;58548;47.210;8.618;2023-08-07T06:44:08;94395.75;;;21.30;34.44
70902;BME280;58548;47.210;8.618;2023-08-07T06:46:36;94393.38;;;21.33;34.58
70902;BME280;58548;47.210;8.618;2023-08-07T06:49:02;94386.81;;;21.41;34.46
70902;BME280;58548;47.210;8.618;2023-08-07T06:51:31;94419.53;;;21.69;34.33
70902;BME280;58548;47.210;8.618;2023-08-07T06:54:02;94429.81;;;21.88;34.16
70902;BME280;58548;47.210;8.618;2023-08-07T06:56:31;94428.88;;;21.99;33.82
70902;BME280;58548;47.210;8.618;2023-08-07T06:58:58;94403.28;;;21.93;33.36
70902;BME280;58548;47.210;8.618;2023-08-07T07:01:24;94413.41;;;21.96;33.46
70902;BME280;58548;47.210;8.618;2023-08-07T07:03:50;94421.44;;;22.01;33.61
70902;BME280;58548;47.210;8.618;2023-08-07T07:06:19;94431.44;;;22.21;33.23
70902;BME280;58548;47.210;8.618;2023-08-07T07:08:51;94427.44;;;22.19;33.06
70902;BME280;58548;47.210;8.618;2023-08-07T07:11:21;94420.50;;;22.18;32.74
70902;BME280;58548;47.210;8.618;2023-08-07T07:13:50;94413.06;;;22.20;33.37
70902;BME280;58548;47.210;8.618;2023-08-07T07:16:20;94423.56;;;22.37;32.79
70902;BME280;58548;47.210;8.618;2023-08-07T07:18:49;94428.44;;;22.45;32.49
70902;BME280;58548;47.210;8.618;2023-08-07T07:21:16;94440.97;;;22.44;32.54
70902;BME280;58548;47.210;8.618;2023-08-07T07:23:48;94421.84;;;22.20;32.54
70902;BME280;58548;47.210;8.618;2023-08-07T07:26:14;94443.06;;;22.42;32.66
70902;BME280;58548;47.210;8.618;2023-08-07T07:28:47;94437.75;;;22.42;32.29
70902;BME280;58548;47.210;8.618;2023-08-07T07:31:14;94413.72;;;22.37;32.61
70902;BME280;58548;47.210;8.618;2023-08-07T07:33:40;94441.03;;;22.55;32.37
70902;BME280;58548;47.210;8.618;2023-08-07T07:36:06;94450.94;;;22.65;32.34
70902;BME280;58548;47.210;8.618;2023-08-07T07:38:35;94459.81;;;22.81;32.16
70902;BME280;58548;47.210;8.618;2023-08-07T07:41:03;94443.84;;;22.81;32.07
70902;BME280;58548;47.210;8.618;2023-08-07T07:43:29;94426.19;;;22.64;32.31
70902;BME280;58548;47.210;8.618;2023-08-07T07:46:00;94457.72;;;22.88;32.04
70902;BME280;58548;47.210;8.618;2023-08-07T07:48:26;94420.31;;;22.62;32.14
70902;BME280;58548;47.210;8.618;2023-08-07T07:51:02;94453.69;;;22.80;32.14
70902;BME280;58548;47.210;8.618;2023-08-07T07:53:30;94474.78;;;22.92;32.01
70902;BME280;58548;47.210;8.618;2023-08-07T07:55:57;94473.19;;;22.86;32.06
70902;BME280;58548;47.210;8.618;2023-08-07T07:58:23;94447.84;;;22.83;31.86
70902;BME280;58548;47.210;8.618;2023-08-07T08:00:50;94431.53;;;22.69;32.36
70902;BME280;58548;47.210;8.618;2023-08-07T08:03:20;94478.84;;;23.05;31.80
70902;BME280;58548;47.210;8.618;2023-08-07T08:05:54;94425.66;;;22.67;31.50
70902;BME280;58548;47.210;8.618;2023-08-07T08:08:20;94469.38;;;22.77;31.37
70902;BME280;58548;47.210;8.618;2023-08-07T08:10:46;94444.22;;;22.57;31.22
70902;BME280;58548;47.210;8.618;2023-08-07T08:13:17;94481.38;;;22.79;30.91
70902;BME280;58548;47.210;8.618;2023-08-07T08:15:45;94473.09;;;22.76;30.93
70902;BME280;58548;47.210;8.618;2023-08-07T08:18:11;94488.19;;;22.65;31.02
70902;BME280;58548;47.210;8.618;2023-08-07T08:20:38;94461.28;;;22.61;30.92
70902;BME280;58548;47.210;8.618;2023-08-07T08:23:06;94487.50;;;22.80;31.23
70902;BME280;58548;47.210;8.618;2023-08-07T08:25:34;94497.09;;;22.81;30.70
70902;BME280;58548;47.210;8.618;2023-08-07T08:28:00;94484.34;;;22.83;30.67
70902;BME280;58548;47.210;8.618;2023-08-07T08:30:28;94482.69;;;22.77;30.59
70902;BME280;58548;47.210;8.618;2023-08-07T08:32:55;94499.81;;;22.86;30.63
70902;BME280;58548;47.210;8.618;2023-08-07T08:35:24;94470.63;;;22.64;31.28
70902;BME280;58548;47.210;8.618;2023-08-07T08:37:55;94495.72;;;22.73;31.60
70902;BME280;58548;47.210;8.618;2023-08-07T08:40:21;94444.69;;;22.43;31.95
70902;BME280;58548;47.210;8.618;2023-08-07T08:42:51;94499.94;;;22.69;32.44
70902;BME280;58548;47.210;8.618;2023-08-07T08:45:22;94449.47;;;22.47;32.93
70902;BME280;58548;47.210;8.618;2023-08-07T08:48:01;94509.34;;;22.82;33.22
70902;BME280;58548;47.210;8.618;2023-08-07T08:50:30;94494.13;;;22.72;33.14
70902;BME280;58548;47.210;8.618;2023-08-07T08:53:01;94493.28;;;22.71;33.44
70902;BME280;58548;47.210;8.618;2023-08-07T08:55:30;94512.63;;;22.94;34.10
70902;BME280;58548;47.210;8.618;2023-08-07T08:57:58;94514.56;;;23.09;33.34
70902;BME280;58548;47.210;8.618;2023-08-07T09:00:27;94519.75;;;23.21;33.58
70902;BME280;58548;47.210;8.618;2023-08-07T09:02:57;94497.09;;;23.24;33.19
70902;BME280;58548;47.210;8.618;2023-08-07T09:05:24;94457.34;;;23.17;33.55
70902;BME280;58548;47.210;8.618;2023-08-07T09:07:50;94509.75;;;23.54;33.17
70902;BME280;58548;47.210;8.618;2023-08-07T09:10:18;94498.59;;;23.62;33.09
70902;BME280;58548;47.210;8.618;2023-08-07T09:13:02;94477.75;;;23.54;32.91
70902;BME280;58548;47.210;8.618;2023-08-07T09:15:37;94503.72;;;23.85;32.71
70902;BME280;58548;47.210;8.618;2023-08-07T09:18:06;94497.41;;;24.01;32.42
70902;BME280;58548;47.210;8.618;2023-08-07T09:20:37;94496.34;;;24.18;32.50
70902;BME280;58548;47.210;8.618;2023-08-07T09:23:06;94532.41;;;24.41;31.20
70902;BME280;58548;47.210;8.618;2023-08-07T09:25:33;94520.63;;;24.37;31.06
70902;BME280;58548;47.210;8.618;2023-08-07T09:28:06;94512.38;;;24.28;31.86
70902;BME280;58548;47.210;8.618;2023-08-07T09:30:36;94534.78;;;24.27;31.96
70902;BME280;58548;47.210;8.618;2023-08-07T09:33:04;94494.47;;;24.08;32.28
70902;BME280;58548;47.210;8.618;2023-08-07T09:35:31;94520.38;;;24.23;32.03
70902;BME280;58548;47.210;8.618;2023-08-07T09:37:58;94519.59;;;24.43;31.76
70902;BME280;58548;47.210;8.618;2023-08-07T09:40:25;94515.84;;;24.70;32.28
70902;BME280;58548;47.210;8.618;2023-08-07T09:42:53;94507.00;;;25.16;32.73
70902;BME280;58548;47.210;8.618;2023-08-07T09:45:19;94521.00;;;25.68;30.85
70902;BME280;58548;47.210;8.618;2023-08-07T09:47:46;94518.19;;;26.04;30.75
70902;BME280;58548;47.210;8.618;2023-08-07T09:50:17;94516.47;;;26.24;29.69
70902;BME280;58548;47.210;8.618;2023-08-07T09:52:48;94492.84;;;26.31;30.21
70902;BME280;58548;47.210;8.618;2023-08-07T09:55:14;94523.59;;;26.74;29.59
70902;BME280;58548;47.210;8.618;2023-08-07T09:57:51;94507.91;;;26.91;28.62
70902;BME280;58548;47.210;8.618;2023-08-07T10:00:25;94505.97;;;27.27;28.36
70902;BME280;58548;47.210;8.618;2023-08-07T10:02:57;94487.59;;;27.39;26.71
70902;BME280;58548;47.210;8.618;2023-08-07T10:05:23;94488.91;;;27.66;27.44
70902;BME280;58548;47.210;8.618;2023-08-07T10:07:50;94444.41;;;27.65;26.53
70902;BME280;58548;47.210;8.618;2023-08-07T10:10:17;94489.84;;;28.19;26.49
70902;BME280;58548;47.210;8.618;2023-08-07T10:12:46;94500.56;;;28.57;26.42
70902;BME280;58548;47.210;8.618;2023-08-07T10:15:17;94508.94;;;28.88;26.10
70902;BME280;58548;47.210;8.618;2023-08-07T10:17:43;94516.09;;;29.40;25.12
70902;BME280;58548;47.210;8.618;2023-08-07T10:20:10;94506.00;;;29.60;24.96
70902;BME280;58548;47.210;8.618;2023-08-07T10:22:38;94522.63;;;29.90;23.21
70902;BME280;58548;47.210;8.618;2023-08-07T10:25:07;94485.16;;;29.79;23.19
70902;BME280;58548;47.210;8.618;2023-08-07T10:27:42;94498.03;;;29.97;22.64
70902;BME280;58548;47.210;8.618;2023-08-07T10:30:11;94489.53;;;30.03;22.70
70902;BME280;58548;47.210;8.618;2023-08-07T10:32:43;94498.28;;;30.09;22.95
70902;BME280;58548;47.210;8.618;2023-08-07T10:35:09;94504.41;;;30.01;22.11
70902;BME280;58548;47.210;8.618;2023-08-07T10:37:44;94473.44;;;29.61;21.81
70902;BME280;58548;47.210;8.618;2023-08-07T10:40:14;94508.69;;;29.60;21.78
70902;BME280;58548;47.210;8.618;2023-08-07T10:42:56;94509.97;;;29.34;21.83
70902;BME280;58548;47.210;8.618;2023-08-07T10:45:29;94521.69;;;29.11;22.03
70902;BME280;58548;47.210;8.618;2023-08-07T10:53:30;94499.19;;;28.73;22.77
70902;BME280;58548;47.210;8.618;2023-08-07T10:56:01;94513.09;;;28.62;22.67
70902;BME280;58548;47.210;8.618;2023-08-07T10:58:38;94494.75;;;28.50;23.01
70902;BME280;58548;47.210;8.618;2023-08-07T11:03:59;94485.84;;;28.35;23.83
70902;BME280;58548;47.210;8.618;2023-08-07T11:06:34;94486.28;;;28.23;23.55
70902;BME280;58548;47.210;8.618;2023-08-07T11:09:05;94516.75;;;28.52;23.00
70902;BME280;58548;47.210;8.618;2023-08-07T11:11:45;94513.13;;;28.42;23.28
70902;BME280;58548;47.210;8.618;2023-08-07T11:14:16;94492.75;;;28.22;23.13
70902;BME280;58548;47.210;8.618;2023-08-07T11:16:46;94519.38;;;28.19;23.13
70902;BME280;58548;47.210;8.618;2023-08-07T11:19:17;94525.19;;;28.26;23.58
70902;BME280;58548;47.210;8.618;2023-08-07T11:21:44;94518.41;;;28.09;23.78
70902;BME280;58548;47.210;8.618;2023-08-07T11:24:14;94510.56;;;27.94;23.63
70902;BME280;58548;47.210;8.618;2023-08-07T11:26:48;94523.47;;;27.92;23.36
70902;BME280;58548;47.210;8.618;2023-08-07T11:29:22;94496.63;;;27.73;24.00
70902;BME280;58548;47.210;8.618;2023-08-07T11:31:51;94530.63;;;27.77;23.36
70902;BME280;58548;47.210;8.618;2023-08-07T11:34:20;94501.81;;;27.39;24.04
70902;BME280;58548;47.210;8.618;2023-08-07T11:36:46;94502.25;;;27.22;24.49
70902;BME280;58548;47.210;8.618;2023-08-07T11:39:13;94529.84;;;27.23;24.48
70902;BME280;58548;47.210;8.618;2023-08-07T11:41:43;94539.56;;;27.19;25.05
70902;BME280;58548;47.210;8.618;2023-08-07T11:44:10;94523.72;;;27.22;25.50
70902;BME280;58548;47.210;8.618;2023-08-07T11:46:36;94509.53;;;27.46;25.28
70902;BME280;58548;47.210;8.618;2023-08-07T11:49:07;94531.31;;;28.07;25.13
70902;BME280;58548;47.210;8.618;2023-08-07T11:51:40;94505.16;;;28.37;24.72
70902;BME280;58548;47.210;8.618;2023-08-07T11:54:14;94540.94;;;29.18;23.18
70902;BME280;58548;47.210;8.618;2023-08-07T11:56:42;94538.63;;;29.58;22.11
70902;BME280;58548;47.210;8.618;2023-08-07T11:59:10;94533.59;;;29.79;21.83
70902;BME280;58548;47.210;8.618;2023-08-07T12:01:38;94514.25;;;29.91;21.08
70902;BME280;58548;47.210;8.618;2023-08-07T12:06:34;94536.53;;;30.34;21.10
70902;BME280;58548;47.210;8.618;2023-08-07T12:09:11;94571.78;;;30.23;22.80
70902;BME280;58548;47.210;8.618;2023-08-07T12:11:40;94588.75;;;29.82;21.98
70902;BME280;58548;47.210;8.618;2023-08-07T12:14:07;94552.88;;;29.12;21.44
70902;BME280;58548;47.210;8.618;2023-08-07T12:16:36;94548.94;;;28.71;21.67
70902;BME280;58548;47.210;8.618;2023-08-07T12:19:02;94560.25;;;28.16;23.71
70902;BME280;58548;47.210;8.618;2023-08-07T12:21:32;94545.06;;;27.81;24.54
70902;BME280;58548;47.210;8.618;2023-08-07T12:24:03;94551.13;;;27.68;25.97
70902;BME280;58548;47.210;8.618;2023-08-07T12:26:32;94493.31;;;27.57;25.49
70902;BME280;58548;47.210;8.618;2023-08-07T12:29:00;94515.84;;;27.99;26.32
70902;BME280;58548;47.210;8.618;2023-08-07T12:31:27;94548.41;;;28.36;24.93
70902;BME280;58548;47.210;8.618;2023-08-07T12:33:52;94539.31;;;28.51;24.63
70902;BME280;58548;47.210;8.618;2023-08-07T12:36:20;94539.75;;;28.58;25.13
70902;BME280;58548;47.210;8.618;2023-08-07T12:38:47;94511.50;;;28.41;24.00
70902;BME280;58548;47.210;8.618;2023-08-07T12:41:13;94501.22;;;28.29;25.40
70902;BME280;58548;47.210;8.618;2023-08-07T12:43:40;94529.38;;;28.51;24.05
70902;BME280;58548;47.210;8.618;2023-08-07T12:46:06;94514.38;;;28.31;24.29
70902;BME280;58548;47.210;8.618;2023-08-07T12:48:40;94534.84;;;28.27;24.57
70902;BME280;58548;47.210;8.618;2023-08-07T12:51:06;94486.69;;;27.92;23.71
70902;BME280;58548;47.210;8.618;2023-08-07T12:53:33;94539.84;;;28.14;24.04
70902;BME280;58548;47.210;8.618;2023-08-07T12:55:59;94555.09;;;28.19;24.33
70902;BME280;58548;47.210;8.618;2023-08-07T12:58:25;94478.66;;;27.73;24.85
70902;BME280;58548;47.210;8.618;2023-08-07T13:00:55;94522.31;;;27.98;24.15
70902;BME280;58548;47.210;8.618;2023-08-07T13:03:21;94553.84;;;28.11;24.74
70902;BME280;58548;47.210;8.618;2023-08-07T13:05:52;94555.91;;;27.95;25.01
70902;BME280;58548;47.210;8.618;2023-08-07T13:08:19;94549.41;;;27.77;26.30
70902;BME280;58548;47.210;8.618;2023-08-07T13:10:45;94562.66;;;27.68;26.81
70902;BME280;58548;47.210;8.618;2023-08-07T13:13:17;94528.34;;;27.41;27.42
70902;BME280;58548;47.210;8.618;2023-08-07T13:15:45;94530.00;;;27.37;27.38
70902;BME280;58548;47.210;8.618;2023-08-07T13:18:14;94561.34;;;27.42;26.66
70902;BME280;58548;47.210;8.618;2023-08-07T13:20:42;94549.44;;;27.53;27.53